KADU

Audubon County Airport

Audubon, Iowa, USA
METAR KADU 191635Z AUTO 35009KT 10SM CLR M14/M17 A3030 RMK AO2
Observed Flight Rules
Jan-19 @ 16:35 UTC (18 minutes ago) Visual Flight Rules
Wind Visibility Clouds
350° at 9 knots 10 miles
  • Clear skies
Temperatures Readings
Current -14°C / 7°F
Dewpoint -17°C / 1°F
Humidity 78%
Altimeter 30.3" Hg
Pressure 1026.12 hPa
Elevation 392
METAR KADU 191635Z AUTO 35009KT 10SM CLR M14/M17 A3030 RMK AO2
Observed Flight Rules
Jan-19 @ 16:35 UTC
(18 minutes ago)
VFR
Wind Visibility
350° at 9 knots 10 miles
Clouds
  • Clear skies
Temperature Dewpoint
-14°C / 7°F -17°C / 1°F
Humidity Altimeter Pressure
78% 30.3" Hg 1026.12 hPa